sensor_id;sensor_type;location;lat;lon;timestamp;P1;durP1;ratioP1;P2;durP2;ratioP2
10232;SDS011;5161;48.174;11.756;2023-04-22T00:00:12;3.00;;;2.80;;
10232;SDS011;5161;48.174;11.756;2023-04-22T00:02:38;2.80;;;2.70;;
10232;SDS011;5161;48.174;11.756;2023-04-22T00:05:05;3.30;;;3.00;;
10232;SDS011;5161;48.174;11.756;2023-04-22T00:07:31;3.17;;;2.90;;
10232;SDS011;5161;48.174;11.756;2023-04-22T00:09:57;3.30;;;3.10;;
10232;SDS011;5161;48.174;11.756;2023-04-22T00:12:23;4.00;;;3.30;;
10232;SDS011;5161;48.174;11.756;2023-04-22T00:14:49;3.60;;;3.20;;
10232;SDS011;5161;48.174;11.756;2023-04-22T00:17:15;3.43;;;3.10;;
10232;SDS011;5161;48.174;11.756;2023-04-22T00:19:41;3.57;;;3.00;;
10232;SDS011;5161;48.174;11.756;2023-04-22T00:22:06;3.10;;;2.90;;
10232;SDS011;5161;48.174;11.756;2023-04-22T00:24:32;3.23;;;3.03;;
10232;SDS011;5161;48.174;11.756;2023-04-22T00:26:57;3.70;;;3.17;;
10232;SDS011;5161;48.174;11.756;2023-04-22T00:29:24;3.33;;;3.13;;
10232;SDS011;5161;48.174;11.756;2023-04-22T00:31:49;3.17;;;2.90;;
10232;SDS011;5161;48.174;11.756;2023-04-22T00:34:15;3.00;;;2.80;;
10232;SDS011;5161;48.174;11.756;2023-04-22T00:36:44;3.50;;;3.20;;
10232;SDS011;5161;48.174;11.756;2023-04-22T00:39:10;3.60;;;3.33;;
10232;SDS011;5161;48.174;11.756;2023-04-22T00:41:37;3.60;;;3.30;;
10232;SDS011;5161;48.174;11.756;2023-04-22T00:44:03;3.80;;;3.50;;
10232;SDS011;5161;48.174;11.756;2023-04-22T00:46:29;3.50;;;3.20;;
10232;SDS011;5161;48.174;11.756;2023-04-22T00:48:55;3.80;;;3.50;;
10232;SDS011;5161;48.174;11.756;2023-04-22T00:51:21;3.47;;;3.20;;
10232;SDS011;5161;48.174;11.756;2023-04-22T00:53:47;3.90;;;3.60;;
10232;SDS011;5161;48.174;11.756;2023-04-22T00:56:12;4.10;;;3.60;;
10232;SDS011;5161;48.174;11.756;2023-04-22T00:58:38;3.60;;;3.40;;
10232;SDS011;5161;48.174;11.756;2023-04-22T01:01:04;3.83;;;3.53;;
10232;SDS011;5161;48.174;11.756;2023-04-22T01:03:30;4.00;;;3.67;;
10232;SDS011;5161;48.174;11.756;2023-04-22T01:05:57;3.93;;;3.53;;
10232;SDS011;5161;48.174;11.756;2023-04-22T01:08:23;3.53;;;3.23;;
10232;SDS011;5161;48.174;11.756;2023-04-22T01:10:52;4.00;;;3.70;;
10232;SDS011;5161;48.174;11.756;2023-04-22T01:13:18;4.00;;;3.70;;
10232;SDS011;5161;48.174;11.756;2023-04-22T01:15:44;4.00;;;3.70;;
10232;SDS011;5161;48.174;11.756;2023-04-22T01:18:10;4.90;;;3.90;;
10232;SDS011;5161;48.174;11.756;2023-04-22T01:20:36;6.97;;;3.90;;
10232;SDS011;5161;48.174;11.756;2023-04-22T01:23:02;3.70;;;3.40;;
10232;SDS011;5161;48.174;11.756;2023-04-22T01:25:34;4.40;;;3.80;;
10232;SDS011;5161;48.174;11.756;2023-04-22T01:27:59;4.10;;;3.73;;
10232;SDS011;5161;48.174;11.756;2023-04-22T01:30:26;4.30;;;4.00;;
10232;SDS011;5161;48.174;11.756;2023-04-22T01:32:52;3.83;;;3.63;;
10232;SDS011;5161;48.174;11.756;2023-04-22T01:35:18;4.30;;;4.00;;
10232;SDS011;5161;48.174;11.756;2023-04-22T01:37:44;4.00;;;3.70;;
10232;SDS011;5161;48.174;11.756;2023-04-22T01:40:09;4.27;;;3.97;;
10232;SDS011;5161;48.174;11.756;2023-04-22T01:42:36;4.17;;;3.90;;
10232;SDS011;5161;48.174;11.756;2023-04-22T01:45:02;4.27;;;3.90;;
10232;SDS011;5161;48.174;11.756;2023-04-22T01:47:28;4.20;;;3.77;;
10232;SDS011;5161;48.174;11.756;2023-04-22T01:49:53;4.33;;;3.87;;
10232;SDS011;5161;48.174;11.756;2023-04-22T01:52:19;4.50;;;4.20;;
10232;SDS011;5161;48.174;11.756;2023-04-22T01:54:44;4.33;;;4.03;;
10232;SDS011;5161;48.174;11.756;2023-04-22T01:57:11;4.50;;;4.17;;
10232;SDS011;5161;48.174;11.756;2023-04-22T01:59:40;4.20;;;3.80;;
10232;SDS011;5161;48.174;11.756;2023-04-22T02:02:06;4.83;;;4.33;;
10232;SDS011;5161;48.174;11.756;2023-04-22T02:04:31;4.70;;;4.20;;
10232;SDS011;5161;48.174;11.756;2023-04-22T02:06:57;4.60;;;4.20;;
10232;SDS011;5161;48.174;11.756;2023-04-22T02:09:23;4.40;;;4.10;;
10232;SDS011;5161;48.174;11.756;2023-04-22T02:11:48;5.17;;;4.67;;
10232;SDS011;5161;48.174;11.756;2023-04-22T02:14:14;4.80;;;4.40;;
10232;SDS011;5161;48.174;11.756;2023-04-22T02:16:40;4.43;;;4.13;;
10232;SDS011;5161;48.174;11.756;2023-04-22T02:19:06;4.43;;;4.13;;
10232;SDS011;5161;48.174;11.756;2023-04-22T02:21:32;4.60;;;4.20;;
10232;SDS011;5161;48.174;11.756;2023-04-22T02:23:57;5.07;;;4.60;;
10232;SDS011;5161;48.174;11.756;2023-04-22T02:26:23;4.37;;;4.07;;
10232;SDS011;5161;48.174;11.756;2023-04-22T02:28:50;4.77;;;4.47;;
10232;SDS011;5161;48.174;11.756;2023-04-22T02:31:16;4.50;;;4.20;;
10232;SDS011;5161;48.174;11.756;2023-04-22T02:33:41;4.50;;;4.10;;
10232;SDS011;5161;48.174;11.756;2023-04-22T02:36:07;4.23;;;3.83;;
10232;SDS011;5161;48.174;11.756;2023-04-22T02:38:32;4.40;;;4.10;;
10232;SDS011;5161;48.174;11.756;2023-04-22T02:40:58;4.60;;;4.20;;
10232;SDS011;5161;48.174;11.756;2023-04-22T02:43:23;4.63;;;4.30;;
10232;SDS011;5161;48.174;11.756;2023-04-22T02:45:49;5.00;;;4.60;;
10232;SDS011;5161;48.174;11.756;2023-04-22T02:48:14;4.43;;;4.13;;
10232;SDS011;5161;48.174;11.756;2023-04-22T02:50:40;4.70;;;4.30;;
10232;SDS011;5161;48.174;11.756;2023-04-22T02:53:06;4.33;;;3.93;;
10232;SDS011;5161;48.174;11.756;2023-04-22T02:55:32;4.10;;;3.90;;
10232;SDS011;5161;48.174;11.756;2023-04-22T02:57:58;4.90;;;4.30;;
10232;SDS011;5161;48.174;11.756;2023-04-22T03:00:23;4.50;;;4.20;;
10232;SDS011;5161;48.174;11.756;2023-04-22T03:02:49;4.73;;;4.30;;
10232;SDS011;5161;48.174;11.756;2023-04-22T03:05:15;4.50;;;4.20;;
10232;SDS011;5161;48.174;11.756;2023-04-22T03:07:41;5.20;;;4.80;;
10232;SDS011;5161;48.174;11.756;2023-04-22T03:10:06;5.13;;;4.70;;
10232;SDS011;5161;48.174;11.756;2023-04-22T03:12:33;4.73;;;4.33;;
10232;SDS011;5161;48.174;11.756;2023-04-22T03:14:58;4.97;;;4.53;;
10232;SDS011;5161;48.174;11.756;2023-04-22T03:17:24;5.00;;;4.50;;
10232;SDS011;5161;48.174;11.756;2023-04-22T03:19:50;5.40;;;4.90;;
10232;SDS011;5161;48.174;11.756;2023-04-22T03:22:15;5.37;;;4.40;;
10232;SDS011;5161;48.174;11.756;2023-04-22T03:24:41;4.77;;;4.37;;
10232;SDS011;5161;48.174;11.756;2023-04-22T03:27:06;4.30;;;4.00;;
10232;SDS011;5161;48.174;11.756;2023-04-22T03:29:33;4.57;;;4.27;;
10232;SDS011;5161;48.174;11.756;2023-04-22T03:31:59;4.93;;;4.53;;
10232;SDS011;5161;48.174;11.756;2023-04-22T03:34:24;4.63;;;4.30;;
10232;SDS011;5161;48.174;11.756;2023-04-22T03:36:50;4.93;;;4.53;;
10232;SDS011;5161;48.174;11.756;2023-04-22T03:39:16;4.93;;;4.57;;
10232;SDS011;5161;48.174;11.756;2023-04-22T03:41:41;5.07;;;4.60;;
10232;SDS011;5161;48.174;11.756;2023-04-22T03:44:07;4.60;;;4.30;;
10232;SDS011;5161;48.174;11.756;2023-04-22T03:46:33;5.03;;;4.60;;
10232;SDS011;5161;48.174;11.756;2023-04-22T03:48:58;5.07;;;4.63;;
10232;SDS011;5161;48.174;11.756;2023-04-22T03:51:24;4.83;;;4.43;;
10232;SDS011;5161;48.174;11.756;2023-04-22T03:53:49;5.00;;;4.60;;
10232;SDS011;5161;48.174;11.756;2023-04-22T03:56:15;5.13;;;4.73;;
10232;SDS011;5161;48.174;11.756;2023-04-22T03:58:40;5.07;;;4.63;;
10232;SDS011;5161;48.174;11.756;2023-04-22T04:01:06;5.10;;;4.80;;
10232;SDS011;5161;48.174;11.756;2023-04-22T04:03:32;5.90;;;5.33;;
10232;SDS011;5161;48.174;11.756;2023-04-22T04:05:57;5.30;;;4.77;;
10232;SDS011;5161;48.174;11.756;2023-04-22T04:08:23;5.13;;;4.70;;
10232;SDS011;5161;48.174;11.756;2023-04-22T04:10:48;5.20;;;4.80;;
10232;SDS011;5161;48.174;11.756;2023-04-22T04:13:14;5.60;;;5.10;;
10232;SDS011;5161;48.174;11.756;2023-04-22T04:15:39;7.23;;;5.53;;
10232;SDS011;5161;48.174;11.756;2023-04-22T04:18:05;6.07;;;5.57;;
10232;SDS011;5161;48.174;11.756;2023-04-22T04:20:31;6.17;;;5.57;;
10232;SDS011;5161;48.174;11.756;2023-04-22T04:22:56;7.50;;;5.70;;
10232;SDS011;5161;48.174;11.756;2023-04-22T04:25:22;5.90;;;5.00;;
10232;SDS011;5161;48.174;11.756;2023-04-22T04:27:48;5.97;;;5.47;;
10232;SDS011;5161;48.174;11.756;2023-04-22T04:30:15;6.07;;;5.43;;
10232;SDS011;5161;48.174;11.756;2023-04-22T04:32:41;6.50;;;5.50;;
10232;SDS011;5161;48.174;11.756;2023-04-22T04:35:09;5.73;;;5.23;;
10232;SDS011;5161;48.174;11.756;2023-04-22T04:37:38;5.33;;;4.93;;
10232;SDS011;5161;48.174;11.756;2023-04-22T04:40:05;5.20;;;4.80;;
10232;SDS011;5161;48.174;11.756;2023-04-22T04:42:31;5.77;;;5.00;;
10232;SDS011;5161;48.174;11.756;2023-04-22T04:44:57;6.20;;;4.67;;
10232;SDS011;5161;48.174;11.756;2023-04-22T04:47:23;5.37;;;4.97;;
10232;SDS011;5161;48.174;11.756;2023-04-22T04:49:49;5.70;;;5.10;;
10232;SDS011;5161;48.174;11.756;2023-04-22T04:52:17;4.83;;;4.40;;
10232;SDS011;5161;48.174;11.756;2023-04-22T04:54:43;4.60;;;4.30;;
10232;SDS011;5161;48.174;11.756;2023-04-22T04:57:08;6.77;;;4.53;;
10232;SDS011;5161;48.174;11.756;2023-04-22T04:59:34;4.60;;;4.30;;
10232;SDS011;5161;48.174;11.756;2023-04-22T05:02:00;4.53;;;4.13;;
10232;SDS011;5161;48.174;11.756;2023-04-22T05:04:25;4.93;;;4.20;;
10232;SDS011;5161;48.174;11.756;2023-04-22T05:06:51;5.23;;;4.80;;
10232;SDS011;5161;48.174;11.756;2023-04-22T05:09:17;4.63;;;4.30;;
10232;SDS011;5161;48.174;11.756;2023-04-22T05:11:42;5.23;;;4.70;;
10232;SDS011;5161;48.174;11.756;2023-04-22T05:14:08;5.17;;;4.77;;
10232;SDS011;5161;48.174;11.756;2023-04-22T05:16:35;5.70;;;4.50;;
10232;SDS011;5161;48.174;11.756;2023-04-22T05:19:00;5.10;;;4.53;;
10232;SDS011;5161;48.174;11.756;2023-04-22T05:21:26;4.97;;;4.67;;
10232;SDS011;5161;48.174;11.756;2023-04-22T05:23:51;6.40;;;4.60;;
10232;SDS011;5161;48.174;11.756;2023-04-22T05:26:17;5.17;;;4.77;;
10232;SDS011;5161;48.174;11.756;2023-04-22T05:28:43;5.10;;;4.70;;
10232;SDS011;5161;48.174;11.756;2023-04-22T05:31:08;8.73;;;4.63;;
10232;SDS011;5161;48.174;11.756;2023-04-22T05:33:34;5.17;;;4.67;;
10232;SDS011;5161;48.174;11.756;2023-04-22T05:36:03;4.93;;;4.43;;
10232;SDS011;5161;48.174;11.756;2023-04-22T05:38:29;4.70;;;4.30;;
10232;SDS011;5161;48.174;11.756;2023-04-22T05:40:54;4.77;;;4.37;;
10232;SDS011;5161;48.174;11.756;2023-04-22T05:43:20;4.57;;;4.27;;
10232;SDS011;5161;48.174;11.756;2023-04-22T05:45:45;4.43;;;4.03;;
10232;SDS011;5161;48.174;11.756;2023-04-22T05:48:11;4.57;;;4.27;;
10232;SDS011;5161;48.174;11.756;2023-04-22T05:50:37;4.47;;;4.07;;
10232;SDS011;5161;48.174;11.756;2023-04-22T05:53:02;6.27;;;3.93;;
10232;SDS011;5161;48.174;11.756;2023-04-22T05:55:28;4.30;;;4.00;;
10232;SDS011;5161;48.174;11.756;2023-04-22T05:57:56;4.70;;;4.30;;
10232;SDS011;5161;48.174;11.756;2023-04-22T06:00:21;4.20;;;3.90;;
10232;SDS011;5161;48.174;11.756;2023-04-22T06:02:47;4.07;;;3.70;;
10232;SDS011;5161;48.174;11.756;2023-04-22T06:05:13;3.77;;;3.47;;
10232;SDS011;5161;48.174;11.756;2023-04-22T06:07:39;3.67;;;3.47;;
10232;SDS011;5161;48.174;11.756;2023-04-22T06:10:04;3.93;;;3.63;;
10232;SDS011;5161;48.174;11.756;2023-04-22T06:12:32;3.60;;;3.40;;
10232;SDS011;5161;48.174;11.756;2023-04-22T06:14:58;3.73;;;3.43;;
10232;SDS011;5161;48.174;11.756;2023-04-22T06:17:24;4.10;;;3.50;;
10232;SDS011;5161;48.174;11.756;2023-04-22T06:19:50;3.67;;;3.43;;
10232;SDS011;5161;48.174;11.756;2023-04-22T06:22:16;3.70;;;3.40;;
10232;SDS011;5161;48.174;11.756;2023-04-22T06:24:41;6.50;;;3.43;;
10232;SDS011;5161;48.174;11.756;2023-04-22T06:27:07;3.90;;;3.70;;
10232;SDS011;5161;48.174;11.756;2023-04-22T06:29:32;3.70;;;3.50;;
10232;SDS011;5161;48.174;11.756;2023-04-22T06:31:58;6.47;;;3.67;;
10232;SDS011;5161;48.174;11.756;2023-04-22T06:34:24;4.73;;;3.83;;
10232;SDS011;5161;48.174;11.756;2023-04-22T06:36:49;3.90;;;3.53;;
10232;SDS011;5161;48.174;11.756;2023-04-22T06:39:15;4.33;;;3.90;;
10232;SDS011;5161;48.174;11.756;2023-04-22T06:41:41;3.67;;;3.37;;
10232;SDS011;5161;48.174;11.756;2023-04-22T06:44:08;3.53;;;3.33;;
10232;SDS011;5161;48.174;11.756;2023-04-22T06:46:33;4.00;;;3.70;;
10232;SDS011;5161;48.174;11.756;2023-04-22T06:48:59;7.77;;;4.10;;
10232;SDS011;5161;48.174;11.756;2023-04-22T06:51:25;11.13;;;3.93;;
10232;SDS011;5161;48.174;11.756;2023-04-22T06:53:50;3.77;;;3.47;;
10232;SDS011;5161;48.174;11.756;2023-04-22T06:56:16;3.70;;;3.40;;
10232;SDS011;5161;48.174;11.756;2023-04-22T06:58:41;3.60;;;3.40;;
10232;SDS011;5161;48.174;11.756;2023-04-22T07:01:07;3.40;;;3.10;;
10232;SDS011;5161;48.174;11.756;2023-04-22T07:03:33;4.03;;;3.63;;
10232;SDS011;5161;48.174;11.756;2023-04-22T07:05:58;5.30;;;3.53;;
10232;SDS011;5161;48.174;11.756;2023-04-22T07:08:24;3.70;;;3.40;;
10232;SDS011;5161;48.174;11.756;2023-04-22T07:10:49;4.20;;;3.40;;
10232;SDS011;5161;48.174;11.756;2023-04-22T07:13:15;3.87;;;3.50;;
10232;SDS011;5161;48.174;11.756;2023-04-22T07:15:41;3.67;;;3.40;;
10232;SDS011;5161;48.174;11.756;2023-04-22T07:18:06;3.80;;;3.50;;
10232;SDS011;5161;48.174;11.756;2023-04-22T07:20:32;3.30;;;3.00;;
10232;SDS011;5161;48.174;11.756;2023-04-22T07:22:58;3.70;;;3.40;;
10232;SDS011;5161;48.174;11.756;2023-04-22T07:25:23;3.47;;;3.17;;
10232;SDS011;5161;48.174;11.756;2023-04-22T07:27:49;5.30;;;3.47;;
10232;SDS011;5161;48.174;11.756;2023-04-22T07:30:15;3.40;;;3.20;;
10232;SDS011;5161;48.174;11.756;2023-04-22T07:32:41;4.97;;;3.30;;
10232;SDS011;5161;48.174;11.756;2023-04-22T07:35:06;3.20;;;3.00;;
10232;SDS011;5161;48.174;11.756;2023-04-22T07:37:33;3.17;;;2.90;;
10232;SDS011;5161;48.174;11.756;2023-04-22T07:39:59;3.33;;;3.00;;
10232;SDS011;5161;48.174;11.756;2023-04-22T07:42:25;3.30;;;3.10;;
10232;SDS011;5161;48.174;11.756;2023-04-22T07:44:52;3.20;;;2.90;;
10232;SDS011;5161;48.174;11.756;2023-04-22T07:47:17;3.13;;;2.93;;
10232;SDS011;5161;48.174;11.756;2023-04-22T07:49:43;3.10;;;2.90;;
10232;SDS011;5161;48.174;11.756;2023-04-22T07:52:09;2.50;;;2.40;;
10232;SDS011;5161;48.174;11.756;2023-04-22T07:54:35;3.10;;;2.90;;
10232;SDS011;5161;48.174;11.756;2023-04-22T07:57:00;3.00;;;2.80;;
10232;SDS011;5161;48.174;11.756;2023-04-22T07:59:29;3.23;;;2.67;;
10232;SDS011;5161;48.174;11.756;2023-04-22T08:01:55;2.93;;;2.77;;
10232;SDS011;5161;48.174;11.756;2023-04-22T08:04:21;2.73;;;2.63;;
10232;SDS011;5161;48.174;11.756;2023-04-22T08:06:47;3.00;;;2.80;;
10232;SDS011;5161;48.174;11.756;2023-04-22T08:09:13;2.87;;;2.77;;
10232;SDS011;5161;48.174;11.756;2023-04-22T08:11:38;2.93;;;2.70;;
10232;SDS011;5161;48.174;11.756;2023-04-22T08:14:04;5.03;;;2.57;;
10232;SDS011;5161;48.174;11.756;2023-04-22T08:16:30;2.63;;;2.53;;
10232;SDS011;5161;48.174;11.756;2023-04-22T08:18:55;3.13;;;2.50;;
10232;SDS011;5161;48.174;11.756;2023-04-22T08:21:21;2.83;;;2.63;;
10232;SDS011;5161;48.174;11.756;2023-04-22T08:23:47;2.70;;;2.60;;
10232;SDS011;5161;48.174;11.756;2023-04-22T08:26:13;2.83;;;2.63;;
10232;SDS011;5161;48.174;11.756;2023-04-22T08:28:40;2.70;;;2.60;;
10232;SDS011;5161;48.174;11.756;2023-04-22T08:31:06;3.10;;;2.90;;
10232;SDS011;5161;48.174;11.756;2023-04-22T08:33:34;3.17;;;2.97;;
10232;SDS011;5161;48.174;11.756;2023-04-22T08:35:59;2.90;;;2.70;;
10232;SDS011;5161;48.174;11.756;2023-04-22T08:38:27;2.53;;;2.43;;
10232;SDS011;5161;48.174;11.756;2023-04-22T08:40:56;2.57;;;2.47;;
10232;SDS011;5161;48.174;11.756;2023-04-22T08:43:24;2.67;;;2.57;;
10232;SDS011;5161;48.174;11.756;2023-04-22T08:45:50;3.23;;;3.03;;
10232;SDS011;5161;48.174;11.756;2023-04-22T08:48:18;3.23;;;3.03;;
10232;SDS011;5161;48.174;11.756;2023-04-22T08:50:43;4.50;;;4.10;;
10232;SDS011;5161;48.174;11.756;2023-04-22T08:53:12;4.83;;;3.47;;
10232;SDS011;5161;48.174;11.756;2023-04-22T08:55:39;3.87;;;2.80;;
10232;SDS011;5161;48.174;11.756;2023-04-22T08:58:09;2.40;;;2.30;;
10232;SDS011;5161;48.174;11.756;2023-04-22T09:00:36;2.30;;;2.20;;
10232;SDS011;5161;48.174;11.756;2023-04-22T09:03:02;2.10;;;2.00;;
10232;SDS011;5161;48.174;11.756;2023-04-22T09:05:31;2.20;;;2.00;;
10232;SDS011;5161;48.174;11.756;2023-04-22T09:07:58;2.20;;;2.10;;
10232;SDS011;5161;48.174;11.756;2023-04-22T09:10:24;2.13;;;1.90;;
10232;SDS011;5161;48.174;11.756;2023-04-22T09:12:50;2.20;;;2.10;;
10232;SDS011;5161;48.174;11.756;2023-04-22T09:15:16;2.10;;;2.00;;
10232;SDS011;5161;48.174;11.756;2023-04-22T09:17:42;2.10;;;2.00;;
10232;SDS011;5161;48.174;11.756;2023-04-22T09:20:08;1.90;;;1.80;;
10232;SDS011;5161;48.174;11.756;2023-04-22T09:22:41;2.07;;;1.93;;
10232;SDS011;5161;48.174;11.756;2023-04-22T09:25:17;4.63;;;2.10;;
10232;SDS011;5161;48.174;11.756;2023-04-22T09:27:47;2.03;;;1.93;;
10232;SDS011;5161;48.174;11.756;2023-04-22T09:30:14;2.10;;;1.80;;
10232;SDS011;5161;48.174;11.756;2023-04-22T09:32:42;2.10;;;2.00;;
10232;SDS011;5161;48.174;11.756;2023-04-22T09:35:21;2.00;;;1.90;;
10232;SDS011;5161;48.174;11.756;2023-04-22T09:37:58;2.20;;;2.10;;
10232;SDS011;5161;48.174;11.756;2023-04-22T09:40:25;2.17;;;2.10;;
10232;SDS011;5161;48.174;11.756;2023-04-22T09:42:52;2.00;;;1.90;;
10232;SDS011;5161;48.174;11.756;2023-04-22T09:47:54;2.10;;;2.00;;
10232;SDS011;5161;48.174;11.756;2023-04-22T09:50:25;1.70;;;1.70;;
10232;SDS011;5161;48.174;11.756;2023-04-22T09:52:55;2.10;;;2.00;;
10232;SDS011;5161;48.174;11.756;2023-04-22T09:55:24;1.80;;;1.80;;
10232;SDS011;5161;48.174;11.756;2023-04-22T09:57:55;2.10;;;2.00;;
10232;SDS011;5161;48.174;11.756;2023-04-22T10:00:23;14.47;;;5.10;;
10232;SDS011;5161;48.174;11.756;2023-04-22T10:02:51;2.10;;;2.00;;
10232;SDS011;5161;48.174;11.756;2023-04-22T10:05:17;2.20;;;2.10;;
10232;SDS011;5161;48.174;11.756;2023-04-22T10:07:43;1.90;;;1.83;;
10232;SDS011;5161;48.174;11.756;2023-04-22T10:10:09;2.10;;;2.00;;
10232;SDS011;5161;48.174;11.756;2023-04-22T10:12:35;2.97;;;1.70;;
10232;SDS011;5161;48.174;11.756;2023-04-22T10:15:01;2.03;;;1.70;;
10232;SDS011;5161;48.174;11.756;2023-04-22T10:17:29;1.90;;;1.80;;
10232;SDS011;5161;48.174;11.756;2023-04-22T10:19:58;1.97;;;1.87;;
10232;SDS011;5161;48.174;11.756;2023-04-22T10:22:29;2.07;;;1.97;;
10232;SDS011;5161;48.174;11.756;2023-04-22T10:24:58;2.40;;;2.30;;
10232;SDS011;5161;48.174;11.756;2023-04-22T10:27:24;3.03;;;2.33;;
10232;SDS011;5161;48.174;11.756;2023-04-22T10:29:49;2.03;;;2.00;;
10232;SDS011;5161;48.174;11.756;2023-04-22T10:34:45;2.90;;;2.00;;
10232;SDS011;5161;48.174;11.756;2023-04-22T10:37:23;1.90;;;1.80;;
10232;SDS011;5161;48.174;11.756;2023-04-22T10:42:48;1.60;;;1.60;;
10232;SDS011;5161;48.174;11.756;2023-04-22T10:45:16;1.83;;;1.73;;
10232;SDS011;5161;48.174;11.756;2023-04-22T10:47:42;1.60;;;1.60;;
10232;SDS011;5161;48.174;11.756;2023-04-22T10:52:33;1.60;;;1.60;;
10232;SDS011;5161;48.174;11.756;2023-04-22T10:54:59;1.80;;;1.70;;
10232;SDS011;5161;48.174;11.756;2023-04-22T10:57:46;1.63;;;1.63;;
10232;SDS011;5161;48.174;11.756;2023-04-22T11:03:09;2.17;;;1.90;;
10232;SDS011;5161;48.174;11.756;2023-04-22T11:05:36;1.80;;;1.70;;
10232;SDS011;5161;48.174;11.756;2023-04-22T11:10:34;1.80;;;1.70;;
10232;SDS011;5161;48.174;11.756;2023-04-22T11:13:05;1.73;;;1.70;;
10232;SDS011;5161;48.174;11.756;2023-04-22T11:15:31;1.77;;;1.60;;
10232;SDS011;5161;48.174;11.756;2023-04-22T11:18:00;1.80;;;1.70;;
10232;SDS011;5161;48.174;11.756;2023-04-22T11:20:26;2.03;;;1.93;;
10232;SDS011;5161;48.174;11.756;2023-04-22T11:22:53;1.80;;;1.70;;
10232;SDS011;5161;48.174;11.756;2023-04-22T11:25:20;1.80;;;1.70;;
10232;SDS011;5161;48.174;11.756;2023-04-22T11:27:47;1.73;;;1.63;;
10232;SDS011;5161;48.174;11.756;2023-04-22T11:30:17;3.30;;;2.90;;
10232;SDS011;5161;48.174;11.756;2023-04-22T11:32:45;2.00;;;1.90;;
10232;SDS011;5161;48.174;11.756;2023-04-22T11:37:47;2.20;;;1.80;;
10232;SDS011;5161;48.174;11.756;2023-04-22T11:40:20;1.90;;;1.80;;
10232;SDS011;5161;48.174;11.756;2023-04-22T11:42:51;2.20;;;1.90;;
10232;SDS011;5161;48.174;11.756;2023-04-22T11:45:18;3.40;;;1.70;;
10232;SDS011;5161;48.174;11.756;2023-04-22T11:47:44;1.77;;;1.73;;
10232;SDS011;5161;48.174;11.756;2023-04-22T11:50:10;1.80;;;1.80;;
10232;SDS011;5161;48.174;11.756;2023-04-22T12:00:29;2.00;;;1.90;;
10232;SDS011;5161;48.174;11.756;2023-04-22T12:03:01;1.90;;;1.80;;
10232;SDS011;5161;48.174;11.756;2023-04-22T12:05:46;2.07;;;1.60;;
10232;SDS011;5161;48.174;11.756;2023-04-22T12:08:16;1.77;;;1.73;;
10232;SDS011;5161;48.174;11.756;2023-04-22T12:10:53;2.07;;;1.90;;
10232;SDS011;5161;48.174;11.756;2023-04-22T12:13:23;2.00;;;1.90;;
10232;SDS011;5161;48.174;11.756;2023-04-22T12:16:00;1.70;;;1.70;;
10232;SDS011;5161;48.174;11.756;2023-04-22T12:20:58;1.80;;;1.70;;
10232;SDS011;5161;48.174;11.756;2023-04-22T12:23:25;2.00;;;1.80;;
10232;SDS011;5161;48.174;11.756;2023-04-22T12:25:52;2.00;;;2.00;;
10232;SDS011;5161;48.174;11.756;2023-04-22T12:28:17;1.77;;;1.67;;
10232;SDS011;5161;48.174;11.756;2023-04-22T12:30:43;2.13;;;1.90;;
10232;SDS011;5161;48.174;11.756;2023-04-22T12:33:09;2.00;;;1.73;;
10232;SDS011;5161;48.174;11.756;2023-04-22T12:35:34;2.10;;;2.00;;
10232;SDS011;5161;48.174;11.756;2023-04-22T12:38:00;2.00;;;1.90;;
10232;SDS011;5161;48.174;11.756;2023-04-22T12:40:26;3.30;;;2.40;;
10232;SDS011;5161;48.174;11.756;2023-04-22T12:42:52;1.90;;;1.80;;
10232;SDS011;5161;48.174;11.756;2023-04-22T12:45:17;2.17;;;1.97;;
10232;SDS011;5161;48.174;11.756;2023-04-22T12:47:43;1.60;;;1.60;;
10232;SDS011;5161;48.174;11.756;2023-04-22T12:50:09;2.00;;;1.90;;
10232;SDS011;5161;48.174;11.756;2023-04-22T12:52:35;2.70;;;2.00;;
10232;SDS011;5161;48.174;11.756;2023-04-22T12:55:01;1.93;;;1.83;;
10232;SDS011;5161;48.174;11.756;2023-04-22T12:57:26;1.90;;;1.90;;
10232;SDS011;5161;48.174;11.756;2023-04-22T12:59:52;2.20;;;2.10;;
10232;SDS011;5161;48.174;11.756;2023-04-22T13:02:18;1.80;;;1.70;;
10232;SDS011;5161;48.174;11.756;2023-04-22T13:04:44;2.40;;;2.30;;
10232;SDS011;5161;48.174;11.756;2023-04-22T13:07:09;2.23;;;2.13;;
10232;SDS011;5161;48.174;11.756;2023-04-22T13:09:35;2.30;;;2.20;;
10232;SDS011;5161;48.174;11.756;2023-04-22T13:12:01;4.93;;;1.97;;
10232;SDS011;5161;48.174;11.756;2023-04-22T13:14:27;2.20;;;2.10;;
10232;SDS011;5161;48.174;11.756;2023-04-22T13:16:54;2.20;;;2.10;;
10232;SDS011;5161;48.174;11.756;2023-04-22T13:19:20;2.10;;;2.00;;
10232;SDS011;5161;48.174;11.756;2023-04-22T13:21:47;2.10;;;2.00;;
10232;SDS011;5161;48.174;11.756;2023-04-22T13:24:13;2.27;;;2.17;;
10232;SDS011;5161;48.174;11.756;2023-04-22T13:26:39;2.67;;;2.47;;
10232;SDS011;5161;48.174;11.756;2023-04-22T13:29:04;2.93;;;2.53;;
10232;SDS011;5161;48.174;11.756;2023-04-22T13:31:37;2.40;;;2.30;;
10232;SDS011;5161;48.174;11.756;2023-04-22T13:34:06;2.83;;;2.67;;
10232;SDS011;5161;48.174;11.756;2023-04-22T13:36:32;2.47;;;2.37;;
10232;SDS011;5161;48.174;11.756;2023-04-22T13:38:58;2.30;;;2.20;;
10232;SDS011;5161;48.174;11.756;2023-04-22T13:41:24;2.70;;;2.50;;
10232;SDS011;5161;48.174;11.756;2023-04-22T13:43:49;3.10;;;2.80;;
10232;SDS011;5161;48.174;11.756;2023-04-22T13:46:18;2.73;;;2.33;;
10232;SDS011;5161;48.174;11.756;2023-04-22T13:48:44;2.43;;;2.30;;
10232;SDS011;5161;48.174;11.756;2023-04-22T13:51:10;2.47;;;2.30;;
10232;SDS011;5161;48.174;11.756;2023-04-22T13:53:35;2.83;;;2.20;;
10232;SDS011;5161;48.174;11.756;2023-04-22T13:56:01;2.17;;;1.97;;
10232;SDS011;5161;48.174;11.756;2023-04-22T13:58:27;2.20;;;2.10;;
10232;SDS011;5161;48.174;11.756;2023-04-22T14:00:52;2.40;;;2.30;;
10232;SDS011;5161;48.174;11.756;2023-04-22T14:03:18;2.50;;;2.40;;
10232;SDS011;5161;48.174;11.756;2023-04-22T14:05:44;2.50;;;2.40;;
10232;SDS011;5161;48.174;11.756;2023-04-22T14:08:09;2.40;;;2.30;;
10232;SDS011;5161;48.174;11.756;2023-04-22T14:10:35;2.47;;;2.27;;
10232;SDS011;5161;48.174;11.756;2023-04-22T14:13:01;2.40;;;2.30;;
10232;SDS011;5161;48.174;11.756;2023-04-22T14:15:26;2.40;;;2.20;;
10232;SDS011;5161;48.174;11.756;2023-04-22T14:17:52;2.43;;;2.33;;
10232;SDS011;5161;48.174;11.756;2023-04-22T14:20:18;2.47;;;2.30;;
10232;SDS011;5161;48.174;11.756;2023-04-22T14:22:43;2.30;;;2.20;;
10232;SDS011;5161;48.174;11.756;2023-04-22T14:25:10;2.40;;;2.20;;
10232;SDS011;5161;48.174;11.756;2023-04-22T14:27:35;2.17;;;2.10;;
10232;SDS011;5161;48.174;11.756;2023-04-22T14:30:01;2.50;;;2.30;;
10232;SDS011;5161;48.174;11.756;2023-04-22T14:32:28;2.30;;;2.20;;
10232;SDS011;5161;48.174;11.756;2023-04-22T14:34:53;2.23;;;2.13;;
10232;SDS011;5161;48.174;11.756;2023-04-22T14:37:19;3.80;;;2.67;;
10232;SDS011;5161;48.174;11.756;2023-04-22T14:39:45;4.50;;;2.80;;
10232;SDS011;5161;48.174;11.756;2023-04-22T14:42:10;2.40;;;2.30;;
10232;SDS011;5161;48.174;11.756;2023-04-22T14:44:36;2.53;;;2.43;;
10232;SDS011;5161;48.174;11.756;2023-04-22T14:47:01;2.27;;;2.17;;
10232;SDS011;5161;48.174;11.756;2023-04-22T14:49:27;2.37;;;2.27;;
10232;SDS011;5161;48.174;11.756;2023-04-22T14:51:53;2.27;;;2.17;;
10232;SDS011;5161;48.174;11.756;2023-04-22T14:54:18;2.10;;;2.00;;
10232;SDS011;5161;48.174;11.756;2023-04-22T14:56:44;2.53;;;2.40;;
10232;SDS011;5161;48.174;11.756;2023-04-22T14:59:09;2.77;;;2.57;;
10232;SDS011;5161;48.174;11.756;2023-04-22T15:01:35;2.60;;;2.40;;
10232;SDS011;5161;48.174;11.756;2023-04-22T15:04:04;2.60;;;2.40;;
10232;SDS011;5161;48.174;11.756;2023-04-22T15:06:31;2.50;;;2.40;;
10232;SDS011;5161;48.174;11.756;2023-04-22T15:08:57;2.40;;;2.30;;
10232;SDS011;5161;48.174;11.756;2023-04-22T15:11:25;2.40;;;2.23;;